sensor_id;sensor_type;location;lat;lon;timestamp;pressure;altitude;pressure_sealevel;temperature;humidity
3968;BME280;9221;42.646;23.380;2023-04-21T00:01:26;94050.06;;;11.26;77.88
3968;BME280;9221;42.646;23.380;2023-04-21T00:03:54;94098.03;;;11.54;77.33
3968;BME280;9221;42.646;23.380;2023-04-21T00:06:19;94051.38;;;11.30;76.92
3968;BME280;9221;42.646;23.380;2023-04-21T00:08:47;94095.72;;;11.51;77.35
3968;BME280;9221;42.646;23.380;2023-04-21T00:11:12;94110.06;;;11.65;76.78
3968;BME280;9221;42.646;23.380;2023-04-21T00:13:39;94141.41;;;11.60;76.56
3968;BME280;9221;42.646;23.380;2023-04-21T00:16:05;94082.38;;;11.36;76.48
3968;BME280;9221;42.646;23.380;2023-04-21T00:18:30;94043.47;;;11.05;76.49
3968;BME280;9221;42.646;23.380;2023-04-21T00:20:56;94038.53;;;11.02;76.68
3968;BME280;9221;42.646;23.380;2023-04-21T00:23:21;94046.47;;;11.02;76.41
3968;BME280;9221;42.646;23.380;2023-04-21T00:25:47;93995.69;;;10.42;76.91
3968;BME280;9221;42.646;23.380;2023-04-21T00:28:12;94099.56;;;10.91;77.83
3968;BME280;9221;42.646;23.380;2023-04-21T00:30:37;94103.19;;;10.90;78.95
3968;BME280;9221;42.646;23.380;2023-04-21T00:33:03;94113.06;;;11.04;78.83
3968;BME280;9221;42.646;23.380;2023-04-21T00:35:28;94141.94;;;11.06;78.89
3968;BME280;9221;42.646;23.380;2023-04-21T00:37:55;94119.03;;;11.06;78.76
3968;BME280;9221;42.646;23.380;2023-04-21T00:40:20;94051.75;;;10.61;79.02
3968;BME280;9221;42.646;23.380;2023-04-21T00:42:45;94088.34;;;10.72;79.36
3968;BME280;9221;42.646;23.380;2023-04-21T00:45:11;94126.25;;;11.04;79.71
3968;BME280;9221;42.646;23.380;2023-04-21T00:47:36;94121.66;;;10.98;79.76
3968;BME280;9221;42.646;23.380;2023-04-21T00:50:02;94127.72;;;10.65;79.92
3968;BME280;9221;42.646;23.380;2023-04-21T00:52:28;94123.31;;;10.91;80.29
3968;BME280;9221;42.646;23.380;2023-04-21T00:54:55;94114.09;;;11.03;80.38
3968;BME280;9221;42.646;23.380;2023-04-21T00:57:21;94143.09;;;11.11;80.18
3968;BME280;9221;42.646;23.380;2023-04-21T00:59:47;94090.16;;;10.80;80.05
3968;BME280;9221;42.646;23.380;2023-04-21T01:02:15;94129.69;;;10.21;81.55
3968;BME280;9221;42.646;23.380;2023-04-21T01:04:42;94016.97;;;9.81;82.56
3968;BME280;9221;42.646;23.380;2023-04-21T01:07:07;94148.91;;;10.39;83.18
3968;BME280;9221;42.646;23.380;2023-04-21T01:09:34;94105.09;;;10.38;84.09
3968;BME280;9221;42.646;23.380;2023-04-21T01:12:04;94075.22;;;10.21;84.64
3968;BME280;9221;42.646;23.380;2023-04-21T01:14:30;94104.47;;;10.61;84.44
3968;BME280;9221;42.646;23.380;2023-04-21T01:16:56;94085.78;;;10.29;84.97
3968;BME280;9221;42.646;23.380;2023-04-21T01:19:23;94032.28;;;9.86;86.20
3968;BME280;9221;42.646;23.380;2023-04-21T01:21:49;94085.22;;;10.09;86.06
3968;BME280;9221;42.646;23.380;2023-04-21T01:24:18;94138.22;;;10.06;86.37
3968;BME280;9221;42.646;23.380;2023-04-21T01:26:44;94050.50;;;9.71;86.17
3968;BME280;9221;42.646;23.380;2023-04-21T01:29:14;94090.97;;;9.70;87.16
3968;BME280;9221;42.646;23.380;2023-04-21T01:31:40;94026.63;;;9.30;87.04
3968;BME280;9221;42.646;23.380;2023-04-21T01:34:06;94104.56;;;9.92;86.82
3968;BME280;9221;42.646;23.380;2023-04-21T01:36:31;94072.94;;;9.83;86.01
3968;BME280;9221;42.646;23.380;2023-04-21T01:38:57;94054.91;;;10.13;84.67
3968;BME280;9221;42.646;23.380;2023-04-21T01:41:22;94100.19;;;10.52;83.36
3968;BME280;9221;42.646;23.380;2023-04-21T01:43:48;94026.84;;;9.88;82.65
3968;BME280;9221;42.646;23.380;2023-04-21T01:46:13;94082.84;;;9.90;83.23
3968;BME280;9221;42.646;23.380;2023-04-21T01:48:39;94098.25;;;10.27;84.07
3968;BME280;9221;42.646;23.380;2023-04-21T01:51:04;94068.69;;;9.99;84.86
3968;BME280;9221;42.646;23.380;2023-04-21T01:53:29;94054.00;;;9.45;85.74
3968;BME280;9221;42.646;23.380;2023-04-21T01:55:55;94098.03;;;10.04;86.58
3968;BME280;9221;42.646;23.380;2023-04-21T01:58:21;94122.97;;;9.83;85.88
3968;BME280;9221;42.646;23.380;2023-04-21T02:00:46;94110.09;;;9.72;86.16
3968;BME280;9221;42.646;23.380;2023-04-21T02:03:11;94096.09;;;9.80;86.64
3968;BME280;9221;42.646;23.380;2023-04-21T02:05:37;93932.78;;;9.04;85.80
3968;BME280;9221;42.646;23.380;2023-04-21T02:08:02;94023.31;;;9.28;85.39
3968;BME280;9221;42.646;23.380;2023-04-21T02:10:28;94078.13;;;9.67;85.52
3968;BME280;9221;42.646;23.380;2023-04-21T02:12:53;94076.09;;;9.87;85.32
3968;BME280;9221;42.646;23.380;2023-04-21T02:15:18;94117.41;;;9.95;84.76
3968;BME280;9221;42.646;23.380;2023-04-21T02:17:44;94003.81;;;9.47;84.77
3968;BME280;9221;42.646;23.380;2023-04-21T02:20:10;94007.81;;;8.90;84.54
3968;BME280;9221;42.646;23.380;2023-04-21T02:22:37;94087.09;;;9.91;84.59
3968;BME280;9221;42.646;23.380;2023-04-21T02:25:03;94092.78;;;10.12;84.51
3968;BME280;9221;42.646;23.380;2023-04-21T02:27:28;94087.16;;;10.07;83.66
3968;BME280;9221;42.646;23.380;2023-04-21T02:29:54;94111.97;;;10.31;82.46
3968;BME280;9221;42.646;23.380;2023-04-21T02:32:19;94115.91;;;10.27;81.81
3968;BME280;9221;42.646;23.380;2023-04-21T02:34:44;93999.63;;;9.62;80.26
3968;BME280;9221;42.646;23.380;2023-04-21T02:37:10;94089.28;;;10.55;78.24
3968;BME280;9221;42.646;23.380;2023-04-21T02:39:35;94090.28;;;10.70;76.15
3968;BME280;9221;42.646;23.380;2023-04-21T02:42:01;94123.28;;;10.82;75.53
3968;BME280;9221;42.646;23.380;2023-04-21T02:44:26;94089.31;;;10.96;74.93
3968;BME280;9221;42.646;23.380;2023-04-21T02:46:52;94018.44;;;10.68;73.92
3968;BME280;9221;42.646;23.380;2023-04-21T02:49:17;94131.88;;;11.09;73.60
3968;BME280;9221;42.646;23.380;2023-04-21T02:51:43;94030.81;;;10.84;73.36
3968;BME280;9221;42.646;23.380;2023-04-21T02:54:08;94063.94;;;11.20;73.39
3968;BME280;9221;42.646;23.380;2023-04-21T02:56:34;94040.50;;;11.00;72.92
3968;BME280;9221;42.646;23.380;2023-04-21T02:58:59;94065.53;;;11.37;72.44
3968;BME280;9221;42.646;23.380;2023-04-21T03:01:25;94070.81;;;11.29;72.31
3968;BME280;9221;42.646;23.380;2023-04-21T03:03:50;94016.75;;;11.08;71.94
3968;BME280;9221;42.646;23.380;2023-04-21T03:06:16;94014.78;;;11.18;72.03
3968;BME280;9221;42.646;23.380;2023-04-21T03:08:41;94116.31;;;11.64;71.71
3968;BME280;9221;42.646;23.380;2023-04-21T03:11:06;93994.69;;;11.01;71.68
3968;BME280;9221;42.646;23.380;2023-04-21T03:13:32;94128.50;;;11.81;71.57
3968;BME280;9221;42.646;23.380;2023-04-21T03:15:57;94088.34;;;11.86;71.59
3968;BME280;9221;42.646;23.380;2023-04-21T03:18:23;94086.03;;;11.91;71.60
3968;BME280;9221;42.646;23.380;2023-04-21T03:20:48;94123.19;;;11.98;71.26
3968;BME280;9221;42.646;23.380;2023-04-21T03:23:13;94017.97;;;11.54;71.24
3968;BME280;9221;42.646;23.380;2023-04-21T03:25:39;94099.22;;;11.99;71.21
3968;BME280;9221;42.646;23.380;2023-04-21T03:28:04;94133.75;;;11.98;71.00
3968;BME280;9221;42.646;23.380;2023-04-21T03:30:30;94070.38;;;11.81;70.61
3968;BME280;9221;42.646;23.380;2023-04-21T03:32:55;94088.50;;;12.01;70.54
3968;BME280;9221;42.646;23.380;2023-04-21T03:35:22;94093.88;;;11.60;73.05
3968;BME280;9221;42.646;23.380;2023-04-21T03:37:48;94047.13;;;10.71;74.85
3968;BME280;9221;42.646;23.380;2023-04-21T03:40:16;94141.94;;;11.14;75.72
3968;BME280;9221;42.646;23.380;2023-04-21T03:42:41;94039.19;;;10.46;76.90
3968;BME280;9221;42.646;23.380;2023-04-21T03:45:08;94122.25;;;10.59;78.33
3968;BME280;9221;42.646;23.380;2023-04-21T03:47:34;94138.75;;;10.53;78.64
3968;BME280;9221;42.646;23.380;2023-04-21T03:49:59;94151.91;;;10.44;79.68
3968;BME280;9221;42.646;23.380;2023-04-21T03:52:25;94146.94;;;10.49;79.78
3968;BME280;9221;42.646;23.380;2023-04-21T03:54:50;94049.28;;;10.00;80.63
3968;BME280;9221;42.646;23.380;2023-04-21T03:57:16;94114.97;;;10.02;81.11
3968;BME280;9221;42.646;23.380;2023-04-21T03:59:42;94122.44;;;10.14;81.63
3968;BME280;9221;42.646;23.380;2023-04-21T04:02:07;94029.69;;;9.52;81.08
3968;BME280;9221;42.646;23.380;2023-04-21T04:04:33;94120.75;;;10.48;80.09
3968;BME280;9221;42.646;23.380;2023-04-21T04:06:58;94112.34;;;10.36;80.42
3968;BME280;9221;42.646;23.380;2023-04-21T04:09:24;94052.44;;;10.12;80.35
3968;BME280;9221;42.646;23.380;2023-04-21T04:11:49;94100.78;;;10.37;80.29
3968;BME280;9221;42.646;23.380;2023-04-21T04:14:15;94116.63;;;10.45;80.07
3968;BME280;9221;42.646;23.380;2023-04-21T04:16:41;94179.22;;;10.35;80.38
3968;BME280;9221;42.646;23.380;2023-04-21T04:19:07;94135.94;;;10.20;80.67
3968;BME280;9221;42.646;23.380;2023-04-21T04:21:32;94088.81;;;9.65;81.66
3968;BME280;9221;42.646;23.380;2023-04-21T04:23:59;93988.16;;;9.37;81.33
3968;BME280;9221;42.646;23.380;2023-04-21T04:26:24;94077.13;;;10.11;80.79
3968;BME280;9221;42.646;23.380;2023-04-21T04:28:51;94096.53;;;10.36;78.71
3968;BME280;9221;42.646;23.380;2023-04-21T04:31:17;94082.72;;;10.59;77.31
3968;BME280;9221;42.646;23.380;2023-04-21T04:33:43;94127.56;;;10.92;76.10
3968;BME280;9221;42.646;23.380;2023-04-21T04:36:08;94103.53;;;11.03;74.27
3968;BME280;9221;42.646;23.380;2023-04-21T04:38:36;94184.31;;;11.45;73.40
3968;BME280;9221;42.646;23.380;2023-04-21T04:41:02;94152.31;;;11.65;72.80
3968;BME280;9221;42.646;23.380;2023-04-21T04:43:29;94228.38;;;11.78;72.47
3968;BME280;9221;42.646;23.380;2023-04-21T04:45:58;94107.75;;;11.62;72.07
3968;BME280;9221;42.646;23.380;2023-04-21T04:48:23;94163.47;;;12.00;71.23
3968;BME280;9221;42.646;23.380;2023-04-21T04:50:49;94159.47;;;12.12;71.24
3968;BME280;9221;42.646;23.380;2023-04-21T04:53:15;94187.22;;;12.25;70.74
3968;BME280;9221;42.646;23.380;2023-04-21T04:55:40;94091.97;;;12.01;70.00
3968;BME280;9221;42.646;23.380;2023-04-21T04:58:06;94162.47;;;12.49;70.56
3968;BME280;9221;42.646;23.380;2023-04-21T05:00:31;94120.06;;;12.34;69.86
3968;BME280;9221;42.646;23.380;2023-04-21T05:02:57;94074.47;;;12.00;70.01
3968;BME280;9221;42.646;23.380;2023-04-21T05:05:22;94094.13;;;11.90;71.25
3968;BME280;9221;42.646;23.380;2023-04-21T05:07:49;94096.03;;;12.12;71.98
3968;BME280;9221;42.646;23.380;2023-04-21T05:10:14;94087.16;;;12.05;71.97
3968;BME280;9221;42.646;23.380;2023-04-21T05:12:40;94151.06;;;12.48;71.99
3968;BME280;9221;42.646;23.380;2023-04-21T05:15:06;94206.50;;;12.73;71.86
3968;BME280;9221;42.646;23.380;2023-04-21T05:17:34;94179.47;;;12.86;71.06
3968;BME280;9221;42.646;23.380;2023-04-21T05:20:00;94126.06;;;12.59;70.77
3968;BME280;9221;42.646;23.380;2023-04-21T05:22:25;94188.56;;;12.92;70.42
3968;BME280;9221;42.646;23.380;2023-04-21T05:24:51;94116.13;;;12.84;70.06
3968;BME280;9221;42.646;23.380;2023-04-21T05:27:17;94153.81;;;13.18;69.45
3968;BME280;9221;42.646;23.380;2023-04-21T05:29:42;94187.94;;;13.59;68.28
3968;BME280;9221;42.646;23.380;2023-04-21T05:32:08;94143.69;;;13.60;67.11
3968;BME280;9221;42.646;23.380;2023-04-21T05:34:34;94097.47;;;13.47;67.36
3968;BME280;9221;42.646;23.380;2023-04-21T05:36:59;94161.94;;;13.93;67.20
3968;BME280;9221;42.646;23.380;2023-04-21T05:39:26;94194.03;;;13.98;66.82
3968;BME280;9221;42.646;23.380;2023-04-21T05:41:52;94135.44;;;13.93;67.04
3968;BME280;9221;42.646;23.380;2023-04-21T05:44:17;94177.31;;;14.12;66.27
3968;BME280;9221;42.646;23.380;2023-04-21T05:46:42;94156.38;;;14.17;67.01
3968;BME280;9221;42.646;23.380;2023-04-21T05:49:08;94173.03;;;14.41;66.68
3968;BME280;9221;42.646;23.380;2023-04-21T05:51:33;94141.91;;;14.35;66.13
3968;BME280;9221;42.646;23.380;2023-04-21T05:53:58;94106.16;;;14.16;64.09
3968;BME280;9221;42.646;23.380;2023-04-21T05:56:24;94160.75;;;14.55;63.32
3968;BME280;9221;42.646;23.380;2023-04-21T05:58:50;94122.63;;;14.26;63.80
3968;BME280;9221;42.646;23.380;2023-04-21T06:01:15;94104.19;;;14.03;63.31
3968;BME280;9221;42.646;23.380;2023-04-21T06:03:40;94182.97;;;14.24;63.79
3968;BME280;9221;42.646;23.380;2023-04-21T06:06:06;94096.69;;;13.92;63.86
3968;BME280;9221;42.646;23.380;2023-04-21T06:08:32;94144.84;;;14.10;64.24
3968;BME280;9221;42.646;23.380;2023-04-21T06:10:57;94139.72;;;14.09;64.40
3968;BME280;9221;42.646;23.380;2023-04-21T06:13:23;94102.44;;;13.80;64.08
3968;BME280;9221;42.646;23.380;2023-04-21T06:15:48;94123.44;;;13.97;64.28
3968;BME280;9221;42.646;23.380;2023-04-21T06:18:14;94109.56;;;13.95;64.40
3968;BME280;9221;42.646;23.380;2023-04-21T06:20:40;94159.47;;;14.21;64.49
3968;BME280;9221;42.646;23.380;2023-04-21T06:23:06;94104.34;;;13.86;63.94
3968;BME280;9221;42.646;23.380;2023-04-21T06:25:31;94139.91;;;13.77;65.03
3968;BME280;9221;42.646;23.380;2023-04-21T06:27:56;94079.50;;;13.58;65.00
3968;BME280;9221;42.646;23.380;2023-04-21T06:30:22;94171.25;;;14.03;65.29
3968;BME280;9221;42.646;23.380;2023-04-21T06:32:47;94136.69;;;13.97;65.03
3968;BME280;9221;42.646;23.380;2023-04-21T06:35:13;94147.50;;;14.25;64.79
3968;BME280;9221;42.646;23.380;2023-04-21T06:37:42;94134.63;;;14.07;64.83
3968;BME280;9221;42.646;23.380;2023-04-21T06:40:07;94094.22;;;13.75;65.45
3968;BME280;9221;42.646;23.380;2023-04-21T06:42:33;94149.34;;;14.25;65.37
3968;BME280;9221;42.646;23.380;2023-04-21T06:44:58;94151.34;;;14.37;64.30
3968;BME280;9221;42.646;23.380;2023-04-21T06:47:24;94090.91;;;14.03;64.67
3968;BME280;9221;42.646;23.380;2023-04-21T06:49:50;94126.47;;;14.24;64.58
3968;BME280;9221;42.646;23.380;2023-04-21T06:52:15;94218.59;;;14.30;64.32
3968;BME280;9221;42.646;23.380;2023-04-21T06:54:41;94142.84;;;14.42;64.84
3968;BME280;9221;42.646;23.380;2023-04-21T06:57:06;94149.31;;;14.69;64.60
3968;BME280;9221;42.646;23.380;2023-04-21T06:59:32;94143.41;;;14.89;63.68
3968;BME280;9221;42.646;23.380;2023-04-21T07:01:58;94071.81;;;14.44;62.79
3968;BME280;9221;42.646;23.380;2023-04-21T07:04:24;94121.94;;;14.69;63.11
3968;BME280;9221;42.646;23.380;2023-04-21T07:06:54;94176.41;;;14.65;63.58
3968;BME280;9221;42.646;23.380;2023-04-21T07:09:20;94152.72;;;14.63;63.96
3968;BME280;9221;42.646;23.380;2023-04-21T07:11:45;94069.66;;;14.33;63.24
3968;BME280;9221;42.646;23.380;2023-04-21T07:14:11;94126.88;;;14.72;62.85
3968;BME280;9221;42.646;23.380;2023-04-21T07:16:37;94127.00;;;14.85;62.51
3968;BME280;9221;42.646;23.380;2023-04-21T07:19:03;94144.22;;;15.11;62.18
3968;BME280;9221;42.646;23.380;2023-04-21T07:21:28;94093.00;;;14.74;61.90
3968;BME280;9221;42.646;23.380;2023-04-21T07:23:56;94138.28;;;14.87;62.63
3968;BME280;9221;42.646;23.380;2023-04-21T07:26:22;94099.91;;;14.53;62.93
3968;BME280;9221;42.646;23.380;2023-04-21T07:28:47;94149.06;;;15.01;63.03
3968;BME280;9221;42.646;23.380;2023-04-21T07:31:14;94097.13;;;14.77;61.78
3968;BME280;9221;42.646;23.380;2023-04-21T07:33:40;94111.09;;;15.07;62.75
3968;BME280;9221;42.646;23.380;2023-04-21T07:36:05;94137.28;;;15.32;61.65
3968;BME280;9221;42.646;23.380;2023-04-21T07:38:31;94087.00;;;15.09;61.27
3968;BME280;9221;42.646;23.380;2023-04-21T07:40:56;94105.00;;;15.35;61.89
3968;BME280;9221;42.646;23.380;2023-04-21T07:43:21;94096.91;;;15.43;60.30
3968;BME280;9221;42.646;23.380;2023-04-21T07:45:47;94121.56;;;15.80;59.92
3968;BME280;9221;42.646;23.380;2023-04-21T07:48:13;94139.06;;;16.03;59.31
3968;BME280;9221;42.646;23.380;2023-04-21T07:50:38;94127.09;;;16.20;58.25
3968;BME280;9221;42.646;23.380;2023-04-21T07:53:22;94129.78;;;16.62;57.85
3968;BME280;9221;42.646;23.380;2023-04-21T07:55:48;94132.06;;;16.72;56.92
3968;BME280;9221;42.646;23.380;2023-04-21T07:58:13;94172.28;;;16.90;56.67
3968;BME280;9221;42.646;23.380;2023-04-21T08:00:39;94144.38;;;16.86;56.96
3968;BME280;9221;42.646;23.380;2023-04-21T08:03:04;94150.63;;;17.14;56.36
3968;BME280;9221;42.646;23.380;2023-04-21T08:05:30;94093.53;;;16.68;55.50
3968;BME280;9221;42.646;23.380;2023-04-21T08:07:56;94115.25;;;16.71;55.66
3968;BME280;9221;42.646;23.380;2023-04-21T08:10:22;94148.88;;;16.79;55.99
3968;BME280;9221;42.646;23.380;2023-04-21T08:12:47;94139.41;;;16.70;55.83
3968;BME280;9221;42.646;23.380;2023-04-21T08:15:12;94074.69;;;16.63;55.17
3968;BME280;9221;42.646;23.380;2023-04-21T08:17:38;94157.19;;;17.11;54.27
3968;BME280;9221;42.646;23.380;2023-04-21T08:20:04;94130.53;;;17.11;54.92
3968;BME280;9221;42.646;23.380;2023-04-21T08:22:30;94139.19;;;17.40;54.98
3968;BME280;9221;42.646;23.380;2023-04-21T08:24:55;94123.63;;;17.64;53.59
3968;BME280;9221;42.646;23.380;2023-04-21T08:27:21;94132.22;;;17.66;52.88
3968;BME280;9221;42.646;23.380;2023-04-21T08:29:47;94071.94;;;17.45;52.53
3968;BME280;9221;42.646;23.380;2023-04-21T08:32:13;94124.47;;;17.98;52.27
3968;BME280;9221;42.646;23.380;2023-04-21T08:34:38;94132.25;;;18.06;51.99
3968;BME280;9221;42.646;23.380;2023-04-21T08:37:04;94161.16;;;17.82;52.33
3968;BME280;9221;42.646;23.380;2023-04-21T08:39:30;94133.47;;;17.70;52.90
3968;BME280;9221;42.646;23.380;2023-04-21T08:41:57;94152.59;;;17.93;52.01
3968;BME280;9221;42.646;23.380;2023-04-21T08:44:22;94137.97;;;18.03;51.79
3968;BME280;9221;42.646;23.380;2023-04-21T08:46:48;93981.72;;;17.48;51.88
3968;BME280;9221;42.646;23.380;2023-04-21T08:49:19;94132.06;;;18.73;50.69
3968;BME280;9221;42.646;23.380;2023-04-21T08:51:46;94132.81;;;18.93;49.94
3968;BME280;9221;42.646;23.380;2023-04-21T08:54:11;94101.69;;;18.60;49.87
3968;BME280;9221;42.646;23.380;2023-04-21T08:56:38;94089.56;;;18.65;49.87
3968;BME280;9221;42.646;23.380;2023-04-21T08:59:03;94122.72;;;18.96;49.18
3968;BME280;9221;42.646;23.380;2023-04-21T09:01:29;94098.84;;;18.55;49.27
3968;BME280;9221;42.646;23.380;2023-04-21T09:04:14;94119.25;;;18.88;49.68
3968;BME280;9221;42.646;23.380;2023-04-21T09:06:40;94120.50;;;19.56;47.97
3968;BME280;9221;42.646;23.380;2023-04-21T09:09:10;94114.69;;;20.10;46.60
3968;BME280;9221;42.646;23.380;2023-04-21T09:11:35;94107.59;;;20.41;45.43
3968;BME280;9221;42.646;23.380;2023-04-21T09:14:00;94127.94;;;20.42;44.95
3968;BME280;9221;42.646;23.380;2023-04-21T09:16:31;94048.38;;;20.12;44.88
3968;BME280;9221;42.646;23.380;2023-04-21T09:19:00;94087.34;;;20.26;45.42
3968;BME280;9221;42.646;23.380;2023-04-21T09:21:30;94046.44;;;20.19;45.20
3968;BME280;9221;42.646;23.380;2023-04-21T09:23:56;94102.72;;;21.17;44.05
3968;BME280;9221;42.646;23.380;2023-04-21T09:26:21;94070.63;;;20.99;43.39
3968;BME280;9221;42.646;23.380;2023-04-21T09:28:48;94095.38;;;20.82;43.99
3968;BME280;9221;42.646;23.380;2023-04-21T09:31:16;94081.81;;;20.21;44.29
3968;BME280;9221;42.646;23.380;2023-04-21T09:33:45;94083.16;;;19.93;45.67
3968;BME280;9221;42.646;23.380;2023-04-21T09:36:17;94106.13;;;19.76;46.11
3968;BME280;9221;42.646;23.380;2023-04-21T09:41:17;94043.47;;;19.40;46.51
3968;BME280;9221;42.646;23.380;2023-04-21T09:43:43;94086.16;;;19.21;46.12
3968;BME280;9221;42.646;23.380;2023-04-21T09:46:10;94076.88;;;18.99;47.17
3968;BME280;9221;42.646;23.380;2023-04-21T09:48:37;94039.94;;;18.82;46.60
3968;BME280;9221;42.646;23.380;2023-04-21T09:51:06;94080.59;;;19.55;44.28
3968;BME280;9221;42.646;23.380;2023-04-21T09:53:33;94024.75;;;19.40;43.07
3968;BME280;9221;42.646;23.380;2023-04-21T09:56:01;94093.22;;;19.41;43.98
3968;BME280;9221;42.646;23.380;2023-04-21T09:58:33;94076.75;;;19.12;44.70
3968;BME280;9221;42.646;23.380;2023-04-21T10:01:04;94060.75;;;19.62;44.27
3968;BME280;9221;42.646;23.380;2023-04-21T10:03:30;94007.81;;;19.46;43.98
3968;BME280;9221;42.646;23.380;2023-04-21T10:05:56;94043.34;;;19.28;44.37
3968;BME280;9221;42.646;23.380;2023-04-21T10:08:21;94110.56;;;19.00;45.51
3968;BME280;9221;42.646;23.380;2023-04-21T10:10:47;94072.81;;;18.89;46.60
3968;BME280;9221;42.646;23.380;2023-04-21T10:13:14;94006.56;;;18.21;45.69
3968;BME280;9221;42.646;23.380;2023-04-21T10:15:42;94059.84;;;18.41;46.18
3968;BME280;9221;42.646;23.380;2023-04-21T10:18:22;94095.84;;;18.90;46.32
3968;BME280;9221;42.646;23.380;2023-04-21T10:25:51;94057.38;;;19.74;43.89
3968;BME280;9221;42.646;23.380;2023-04-21T10:28:19;94041.38;;;19.67;44.14
3968;BME280;9221;42.646;23.380;2023-04-21T10:30:45;94042.00;;;19.44;45.56
3968;BME280;9221;42.646;23.380;2023-04-21T10:33:10;94047.19;;;19.39;46.59
3968;BME280;9221;42.646;23.380;2023-04-21T10:41:31;94058.03;;;18.80;48.62
3968;BME280;9221;42.646;23.380;2023-04-21T10:44:22;93999.34;;;18.67;48.86
3968;BME280;9221;42.646;23.380;2023-04-21T10:46:48;94021.13;;;18.64;48.32
3968;BME280;9221;42.646;23.380;2023-04-21T10:54:28;93910.19;;;17.90;48.14
3968;BME280;9221;42.646;23.380;2023-04-21T10:56:54;94051.84;;;18.86;48.53
3968;BME280;9221;42.646;23.380;2023-04-21T10:59:20;94011.59;;;18.42;47.75
3968;BME280;9221;42.646;23.380;2023-04-21T11:01:46;94081.66;;;18.38;47.61
3968;BME280;9221;42.646;23.380;2023-04-21T11:04:19;94060.75;;;18.21;48.02
3968;BME280;9221;42.646;23.380;2023-04-21T11:09:32;93995.19;;;17.73;48.44
3968;BME280;9221;42.646;23.380;2023-04-21T11:11:59;94067.38;;;18.05;47.91
3968;BME280;9221;42.646;23.380;2023-04-21T11:14:26;94048.09;;;17.97;47.72
3968;BME280;9221;42.646;23.380;2023-04-21T11:16:52;94036.19;;;18.06;47.51
3968;BME280;9221;42.646;23.380;2023-04-21T11:19:18;94057.66;;;18.70;47.17
3968;BME280;9221;42.646;23.380;2023-04-21T11:21:47;94005.88;;;18.71;46.31
3968;BME280;9221;42.646;23.380;2023-04-21T11:24:12;94004.59;;;18.80;46.15
3968;BME280;9221;42.646;23.380;2023-04-21T11:26:38;93995.97;;;18.78;47.51
3968;BME280;9221;42.646;23.380;2023-04-21T11:29:05;94091.69;;;18.94;48.75
3968;BME280;9221;42.646;23.380;2023-04-21T11:31:32;94030.63;;;18.59;49.81
3968;BME280;9221;42.646;23.380;2023-04-21T11:33:58;94097.88;;;19.20;49.12
3968;BME280;9221;42.646;23.380;2023-04-21T11:36:23;93990.22;;;19.38;48.30
3968;BME280;9221;42.646;23.380;2023-04-21T11:38:49;94044.41;;;19.96;48.68
3968;BME280;9221;42.646;23.380;2023-04-21T11:41:24;93991.13;;;19.69;47.46
3968;BME280;9221;42.646;23.380;2023-04-21T11:43:51;93992.16;;;19.93;46.52
3968;BME280;9221;42.646;23.380;2023-04-21T11:46:25;94036.91;;;20.05;45.92
3968;BME280;9221;42.646;23.380;2023-04-21T11:49:17;94049.03;;;19.64;47.22
3968;BME280;9221;42.646;23.380;2023-04-21T11:51:43;94048.75;;;19.21;48.72
3968;BME280;9221;42.646;23.380;2023-04-21T11:54:13;93996.91;;;18.58;49.20
3968;BME280;9221;42.646;23.380;2023-04-21T11:56:42;94112.72;;;18.71;50.65
3968;BME280;9221;42.646;23.380;2023-04-21T11:59:09;93996.31;;;18.11;50.27
3968;BME280;9221;42.646;23.380;2023-04-21T12:01:47;94101.34;;;18.37;49.29
3968;BME280;9221;42.646;23.380;2023-04-21T12:04:14;93995.34;;;17.99;49.59
3968;BME280;9221;42.646;23.380;2023-04-21T12:06:41;94049.63;;;18.31;50.49
3968;BME280;9221;42.646;23.380;2023-04-21T12:09:06;94003.19;;;17.93;50.67
3968;BME280;9221;42.646;23.380;2023-04-21T12:11:33;94046.69;;;18.46;50.09
3968;BME280;9221;42.646;23.380;2023-04-21T12:14:01;93996.44;;;18.36;48.95
3968;BME280;9221;42.646;23.380;2023-04-21T12:16:28;93952.00;;;18.10;45.66
3968;BME280;9221;42.646;23.380;2023-04-21T12:18:56;93942.63;;;17.94;46.30
3968;BME280;9221;42.646;23.380;2023-04-21T12:21:28;94077.22;;;18.64;46.44
3968;BME280;9221;42.646;23.380;2023-04-21T12:23:54;94055.31;;;18.48;46.32
3968;BME280;9221;42.646;23.380;2023-04-21T12:26:20;93991.41;;;18.08;45.81
3968;BME280;9221;42.646;23.380;2023-04-21T12:28:46;94005.34;;;18.23;46.01
3968;BME280;9221;42.646;23.380;2023-04-21T12:31:12;94023.47;;;19.17;43.39
3968;BME280;9221;42.646;23.380;2023-04-21T12:33:38;94064.25;;;19.88;42.69
3968;BME280;9221;42.646;23.380;2023-04-21T12:36:04;93950.97;;;19.94;41.30
3968;BME280;9221;42.646;23.380;2023-04-21T12:38:29;93995.91;;;20.23;41.46
3968;BME280;9221;42.646;23.380;2023-04-21T12:40:55;94050.56;;;20.71;41.55
3968;BME280;9221;42.646;23.380;2023-04-21T12:43:20;94032.78;;;20.39;41.48
3968;BME280;9221;42.646;23.380;2023-04-21T12:45:46;94030.09;;;20.58;41.40
3968;BME280;9221;42.646;23.380;2023-04-21T12:48:11;93899.66;;;19.79;41.09
3968;BME280;9221;42.646;23.380;2023-04-21T12:50:37;94021.88;;;20.04;41.71
3968;BME280;9221;42.646;23.380;2023-04-21T12:53:02;94034.69;;;20.02;42.56
3968;BME280;9221;42.646;23.380;2023-04-21T12:55:27;94034.16;;;19.93;42.84
3968;BME280;9221;42.646;23.380;2023-04-21T12:57:53;93979.19;;;19.53;42.92
3968;BME280;9221;42.646;23.380;2023-04-21T13:00:19;94049.41;;;19.67;44.13
3968;BME280;9221;42.646;23.380;2023-04-21T13:02:44;94060.00;;;19.55;44.11
3968;BME280;9221;42.646;23.380;2023-04-21T13:05:10;94028.47;;;19.39;44.53
3968;BME280;9221;42.646;23.380;2023-04-21T13:07:37;94035.47;;;19.58;44.45
3968;BME280;9221;42.646;23.380;2023-04-21T13:10:03;94044.13;;;19.79;43.91
3968;BME280;9221;42.646;23.380;2023-04-21T13:12:30;93978.72;;;19.75;43.29
3968;BME280;9221;42.646;23.380;2023-04-21T13:14:55;93970.66;;;20.00;42.33
3968;BME280;9221;42.646;23.380;2023-04-21T13:17:21;94023.19;;;20.50;40.19
3968;BME280;9221;42.646;23.380;2023-04-21T13:19:47;93990.66;;;19.98;39.01
3968;BME280;9221;42.646;23.380;2023-04-21T13:22:12;94034.59;;;20.27;39.80
3968;BME280;9221;42.646;23.380;2023-04-21T13:24:38;94037.06;;;20.10;40.49
3968;BME280;9221;42.646;23.380;2023-04-21T13:27:03;93983.78;;;19.65;40.82
3968;BME280;9221;42.646;23.380;2023-04-21T13:29:29;94048.19;;;19.88;41.62